Time;durP1;ratioP1;P1;durP2;ratioP2;P2;SDS_P1;SDS_P2;PMS_P1;PMS_P2;Temp;Humidity;BMP_temperature;BMP_pressure;BME280_temperature;BME280_humidity;BME280_pressure;Samples;Min_cycle;Max_cycle;Signal;HPM_P1;HPM_P2
2023/03/01 00:01:50;;;;;;;1.23;1.10;;;2.80;64.20;;;;;;5122964;27;20065;-68
2023/03/01 00:04:16;;;;;;;1.17;1.00;;;2.80;64.30;;;;;;5110879;28;20024;-68
2023/03/01 00:06:46;;;;;;;1.20;1.10;;;2.80;64.30;;;;;;5111488;27;20023;-66
2023/03/01 00:09:15;;;;;;;1.02;0.90;;;2.80;64.30;;;;;;5108553;27;20153;-67
2023/03/01 00:11:41;;;;;;;1.75;1.10;;;2.80;64.40;;;;;;5097670;28;20584;-67
2023/03/01 00:14:07;;;;;;;1.42;1.20;;;2.80;64.40;;;;;;5092886;28;20099;-67
2023/03/01 00:16:35;;;;;;;1.65;1.30;;;2.70;64.30;;;;;;5099613;27;20505;-67
2023/03/01 00:19:01;;;;;;;1.17;1.00;;;2.70;64.40;;;;;;5119235;27;20104;-67
2023/03/01 00:21:27;;;;;;;0.88;0.85;;;2.70;64.40;;;;;;5108650;28;20031;-68
2023/03/01 00:23:54;;;;;;;1.60;1.08;;;2.70;64.50;;;;;;5097594;28;20029;-68
2023/03/01 00:26:21;;;;;;;1.45;1.25;;;2.70;64.50;;;;;;5107724;28;20028;-66
2023/03/01 00:28:47;;;;;;;1.25;1.15;;;2.70;64.60;;;;;;5120161;27;20019;-68
2023/03/01 00:31:16;;;;;;;1.27;1.17;;;2.70;64.60;;;;;;5110473;28;20046;-68
2023/03/01 00:33:42;;;;;;;1.40;1.30;;;2.60;64.60;;;;;;5108592;28;20027;-68
2023/03/01 00:36:08;;;;;;;1.58;1.20;;;2.60;64.70;;;;;;5107778;28;20505;-68
2023/03/01 00:38:42;;;;;;;1.65;1.20;;;2.60;64.70;;;;;;5123310;27;20110;-68
2023/03/01 00:41:10;;;;;;;1.80;1.48;;;2.60;64.80;;;;;;5109695;28;20071;-68
2023/03/01 00:43:38;;;;;;;1.65;1.20;;;2.50;64.80;;;;;;5095608;28;20024;-67
2023/03/01 00:46:11;;;;;;;1.20;1.10;;;2.50;64.80;;;;;;5094999;28;20039;-68
2023/03/01 00:48:37;;;;;;;1.27;1.05;;;2.50;64.90;;;;;;5123670;27;20034;-68
2023/03/01 00:51:20;;;;;;;1.60;1.33;;;2.40;64.90;;;;;;5126400;27;20027;-68
2023/03/01 00:53:46;;;;;;;2.00;1.17;;;2.40;65.00;;;;;;5114361;27;20027;-68
2023/03/01 00:56:14;;;;;;;1.60;1.50;;;2.40;65.00;;;;;;5109817;28;20641;-68
2023/03/01 00:58:39;;;;;;;1.50;1.23;;;2.40;65.10;;;;;;5118517;27;20019;-68
2023/03/01 01:01:17;;;;;;;1.35;1.17;;;2.40;65.10;;;;;;5125266;27;20027;-68
2023/03/01 01:03:58;;;;;;;1.73;1.35;;;2.30;65.20;;;;;;5109432;28;20025;-67
2023/03/01 01:06:26;;;;;;;2.55;1.65;;;2.30;65.10;;;;;;5099773;27;20087;-68
2023/03/01 01:08:53;;;;;;;3.58;2.00;;;2.30;65.20;;;;;;5121239;27;20031;-68
2023/03/01 01:11:20;;;;;;;1.63;1.52;;;2.20;65.30;;;;;;5113900;27;20095;-68
2023/03/01 01:13:47;;;;;;;2.25;1.40;;;2.20;65.30;;;;;;5111293;28;20107;-67
2023/03/01 01:16:13;;;;;;;2.17;1.40;;;2.20;65.40;;;;;;5106807;27;20098;-68
2023/03/01 01:18:40;;;;;;;1.30;1.20;;;2.20;65.40;;;;;;5129571;27;20069;-66
2023/03/01 01:21:08;;;;;;;2.55;1.63;;;2.20;65.40;;;;;;5134380;27;20037;-68
2023/03/01 01:23:34;;;;;;;2.13;1.38;;;2.20;65.50;;;;;;5110714;27;20478;-68
2023/03/01 01:26:04;;;;;;;2.05;1.52;;;2.10;65.50;;;;;;5111896;27;20131;-67
2023/03/01 01:28:30;;;;;;;2.25;1.80;;;2.10;65.50;;;;;;5104779;28;20644;-68
2023/03/01 01:30:55;;;;;;;1.80;1.33;;;2.00;65.60;;;;;;5101095;27;20024;-67
2023/03/01 01:33:21;;;;;;;2.17;1.60;;;2.00;65.70;;;;;;5115235;27;20050;-68
2023/03/01 01:35:47;;;;;;;2.75;1.70;;;2.00;65.80;;;;;;5101859;28;20015;-68
2023/03/01 01:38:12;;;;;;;1.95;1.50;;;1.90;65.80;;;;;;5112669;28;20028;-67
2023/03/01 01:40:45;;;;;;;2.63;1.80;;;1.90;65.80;;;;;;5107630;28;20024;-66
2023/03/01 01:43:21;;;;;;;2.20;1.70;;;1.90;65.90;;;;;;5123756;27;20027;-66
2023/03/01 01:45:47;;;;;;;2.00;1.58;;;1.90;66.00;;;;;;5113347;28;20016;-68
2023/03/01 01:48:21;;;;;;;1.70;1.58;;;1.80;66.00;;;;;;5109951;27;20024;-68
2023/03/01 01:50:58;;;;;;;2.42;1.50;;;1.70;66.00;;;;;;5125096;27;20100;-66
2023/03/01 01:53:25;;;;;;;1.92;1.40;;;1.70;66.10;;;;;;5119273;27;20024;-67
2023/03/01 01:55:58;;;;;;;2.83;1.83;;;1.70;66.20;;;;;;5110756;27;20037;-67
2023/03/01 01:58:25;;;;;;;1.63;1.42;;;1.70;66.20;;;;;;5124508;27;20514;-67
2023/03/01 02:00:50;;;;;;;2.58;1.70;;;1.70;66.30;;;;;;5120084;27;20019;-66
2023/03/01 02:03:28;;;;;;;1.58;1.42;;;1.60;66.20;;;;;;5119102;27;20432;-67
2023/03/01 02:06:10;;;;;;;2.28;1.83;;;1.60;67.00;;;;;;5129130;27;20166;-67
2023/03/01 02:08:41;;;;;;;2.63;1.67;;;1.60;66.40;;;;;;5120112;27;20031;-67
2023/03/01 02:11:07;;;;;;;2.15;1.65;;;1.60;66.40;;;;;;5098387;28;20483;-67
2023/03/01 02:13:34;;;;;;;2.97;2.13;;;1.60;66.40;;;;;;5110452;27;20019;-66
2023/03/01 02:16:14;;;;;;;1.58;1.48;;;1.60;66.40;;;;;;5115706;27;20389;-68
2023/03/01 02:18:41;;;;;;;2.45;1.73;;;1.60;66.40;;;;;;5101775;28;20035;-67
2023/03/01 02:21:24;;;;;;;2.63;1.73;;;1.50;66.40;;;;;;5092126;28;20024;-67
2023/03/01 02:23:50;;;;;;;2.65;1.70;;;1.50;66.50;;;;;;5111966;27;20080;-66
2023/03/01 02:26:30;;;;;;;1.75;1.60;;;1.50;66.50;;;;;;5121467;27;20108;-67
2023/03/01 02:28:56;;;;;;;1.52;1.40;;;1.50;66.70;;;;;;5120020;27;20075;-67
2023/03/01 02:34:08;;;;;;;2.95;1.85;;;1.50;66.80;;;;;;5113034;27;20041;-67
2023/03/01 02:36:44;;;;;;;2.95;1.90;;;1.40;66.70;;;;;;5124275;27;20054;-67
2023/03/01 02:39:18;;;;;;;3.38;1.90;;;1.40;66.80;;;;;;5126097;27;20076;-67
2023/03/01 02:41:51;;;;;;;3.50;1.90;;;1.40;66.80;;;;;;5113445;27;20030;-68
2023/03/01 02:44:17;;;;;;;2.20;1.60;;;1.40;66.90;;;;;;5124905;27;20038;-66
2023/03/01 02:46:46;;;;;;;1.75;1.65;;;1.50;66.90;;;;;;5112198;28;20076;-67
2023/03/01 02:49:38;;;;;;;2.03;1.70;;;1.50;66.80;;;;;;5113078;27;20031;-67
2023/03/01 02:52:22;;;;;;;2.55;1.58;;;1.50;67.60;;;;;;5109590;27;20416;-67
2023/03/01 02:55:05;;;;;;;2.72;1.80;;;1.40;66.90;;;;;;5113303;27;20050;-67
2023/03/01 02:57:32;;;;;;;1.50;1.40;;;1.40;66.90;;;;;;5100223;28;20019;-67
2023/03/01 03:00:06;;;;;;;2.03;1.60;;;1.40;66.80;;;;;;5094692;27;20032;-67
2023/03/01 03:02:38;;;;;;;2.30;1.50;;;1.40;66.90;;;;;;5092113;27;20028;-68
2023/03/01 03:05:09;;;;;;;1.83;1.42;;;1.40;66.90;;;;;;5120036;27;20033;-68
2023/03/01 03:07:37;;;;;;;2.22;1.60;;;1.40;66.90;;;;;;5101229;28;20505;-67
2023/03/01 03:10:05;;;;;;;2.08;1.80;;;1.50;67.00;;;;;;5104907;28;20028;-66
2023/03/01 03:12:30;;;;;;;2.08;1.60;;;1.40;66.90;;;;;;5107969;27;20019;-66
2023/03/01 03:14:56;;;;;;;2.33;1.58;;;1.40;66.90;;;;;;5120127;27;20076;-67
2023/03/01 03:17:22;;;;;;;2.92;1.83;;;1.40;67.00;;;;;;5106962;27;20023;-68
2023/03/01 03:19:48;;;;;;;1.50;1.40;;;1.40;67.00;;;;;;5119328;27;20685;-68
2023/03/01 03:22:14;;;;;;;2.05;1.70;;;1.40;67.10;;;;;;5104643;27;20020;-68
2023/03/01 03:24:39;;;;;;;1.75;1.40;;;1.40;67.20;;;;;;5115639;27;20019;-67
2023/03/01 03:27:06;;;;;;;3.28;1.67;;;1.40;67.30;;;;;;5114621;27;20071;-66
2023/03/01 03:29:33;;;;;;;2.17;1.60;;;1.40;67.30;;;;;;5117280;27;20397;-67
2023/03/01 03:31:58;;;;;;;2.22;1.60;;;1.50;67.30;;;;;;5098041;28;20085;-68
2023/03/01 03:34:24;;;;;;;1.40;1.30;;;1.50;67.20;;;;;;5112143;27;20023;-67
2023/03/01 03:36:56;;;;;;;1.58;1.20;;;1.50;67.20;;;;;;5117331;27;20023;-68
2023/03/01 03:39:23;;;;;;;1.58;1.30;;;1.60;67.20;;;;;;5099392;27;20055;-67
2023/03/01 03:41:48;;;;;;;1.40;1.30;;;1.50;67.20;;;;;;5101360;28;20024;-67
2023/03/01 03:44:14;;;;;;;1.92;1.30;;;1.60;67.20;;;;;;5120100;27;20030;-67
2023/03/01 03:46:40;;;;;;;1.42;1.33;;;1.60;67.20;;;;;;5120339;27;20027;-66
2023/03/01 03:49:05;;;;;;;1.30;1.20;;;1.60;67.20;;;;;;5104704;27;20013;-68
2023/03/01 03:51:31;;;;;;;1.10;1.10;;;1.60;67.20;;;;;;5103028;28;20024;-67
2023/03/01 03:53:56;;;;;;;1.55;1.40;;;1.60;67.20;;;;;;5117165;27;20023;-66
2023/03/01 03:56:25;;;;;;;1.65;1.25;;;1.60;67.20;;;;;;5119818;27;20024;-66
2023/03/01 03:58:53;;;;;;;2.22;1.50;;;1.60;67.20;;;;;;5099655;28;20140;-67
2023/03/01 04:01:19;;;;;;;1.70;1.60;;;1.60;67.20;;;;;;5095020;28;20017;-67
2023/03/01 04:03:48;;;;;;;1.98;1.40;;;1.60;67.30;;;;;;5113868;27;20606;-67
2023/03/01 04:06:14;;;;;;;1.50;1.40;;;1.60;67.40;;;;;;5109467;28;20506;-67
2023/03/01 04:08:40;;;;;;;1.55;1.45;;;1.60;67.30;;;;;;5095904;28;20046;-67
2023/03/01 04:13:52;;;;;;;1.60;1.50;;;1.60;67.30;;;;;;5109850;27;20661;-67
2023/03/01 04:16:18;;;;;;;1.40;1.30;;;1.70;67.30;;;;;;5111409;27;20477;-66
2023/03/01 04:18:44;;;;;;;1.48;1.17;;;1.70;67.30;;;;;;5113734;27;20028;-67
2023/03/01 04:21:11;;;;;;;1.40;1.20;;;1.70;67.40;;;;;;5110710;27;20481;-66
2023/03/01 04:23:37;;;;;;;3.08;1.80;;;1.70;67.40;;;;;;5103028;28;20020;-68
2023/03/01 04:26:03;;;;;;;1.85;1.40;;;1.70;67.40;;;;;;5103445;28;20660;-67
2023/03/01 04:28:34;;;;;;;1.65;1.30;;;1.70;67.40;;;;;;5112316;27;20016;-67
2023/03/01 04:31:12;;;;;;;1.30;1.20;;;1.70;67.40;;;;;;5113816;27;20101;-68
2023/03/01 04:33:48;;;;;;;2.72;1.60;;;1.70;67.50;;;;;;5110405;28;20020;-65
2023/03/01 04:36:16;;;;;;;2.97;1.20;;;1.60;67.40;;;;;;5099425;28;20019;-66
2023/03/01 04:38:42;;;;;;;1.30;1.20;;;1.60;67.50;;;;;;5113328;28;20042;-67
2023/03/01 04:41:09;;;;;;;1.50;1.40;;;1.60;67.40;;;;;;5115258;28;20035;-66
2023/03/01 04:43:35;;;;;;;1.95;1.48;;;1.60;67.50;;;;;;5108875;28;20036;-68
2023/03/01 04:46:03;;;;;;;1.73;1.27;;;1.60;67.50;;;;;;5099753;28;20047;-67
2023/03/01 04:48:30;;;;;;;2.03;1.30;;;1.60;67.50;;;;;;5103993;28;20022;-67
2023/03/01 04:50:56;;;;;;;1.30;1.20;;;1.60;67.60;;;;;;5120575;28;20393;-66
2023/03/01 04:53:22;;;;;;;1.40;1.30;;;1.60;67.60;;;;;;5121844;27;20060;-66
2023/03/01 04:55:47;;;;;;;2.25;1.20;;;1.60;67.50;;;;;;5123183;27;20567;-68
2023/03/01 04:58:13;;;;;;;1.52;1.42;;;1.50;67.60;;;;;;5117528;28;20023;-67
2023/03/01 05:00:38;;;;;;;1.55;1.38;;;1.50;67.60;;;;;;5108082;28;20045;-67
2023/03/01 05:03:04;;;;;;;2.20;1.30;;;1.50;67.60;;;;;;5118290;28;20026;-68
2023/03/01 05:05:36;;;;;;;1.38;1.23;;;1.50;67.70;;;;;;5105431;28;20156;-67
2023/03/01 05:08:04;;;;;;;1.20;1.10;;;1.50;67.70;;;;;;5118394;28;20024;-67
2023/03/01 05:10:33;;;;;;;1.88;1.30;;;1.50;67.70;;;;;;5108084;28;20018;-67
2023/03/01 05:12:59;;;;;;;1.83;1.30;;;1.50;67.70;;;;;;5106977;28;20038;-67
2023/03/01 05:15:26;;;;;;;1.33;1.23;;;1.50;67.70;;;;;;5120636;27;20011;-67
2023/03/01 05:17:53;;;;;;;1.30;1.20;;;1.60;67.80;;;;;;5096792;28;20031;-67
2023/03/01 05:20:22;;;;;;;1.10;1.00;;;1.60;67.80;;;;;;5093068;28;20495;-68
2023/03/01 05:22:48;;;;;;;1.52;1.30;;;1.50;67.80;;;;;;5096518;28;20028;-68
2023/03/01 05:25:14;;;;;;;2.00;1.40;;;1.60;67.80;;;;;;5117525;28;20032;-67
2023/03/01 05:27:40;;;;;;;1.40;1.27;;;1.60;67.80;;;;;;5104106;28;20028;-68
2023/03/01 05:30:13;;;;;;;1.30;1.20;;;1.50;67.70;;;;;;5103124;28;20023;-67
2023/03/01 05:32:43;;;;;;;1.73;1.20;;;1.50;67.90;;;;;;5096069;28;20072;-69
2023/03/01 05:35:13;;;;;;;1.48;1.30;;;1.50;67.80;;;;;;5120834;27;20102;-67
2023/03/01 05:37:47;;;;;;;1.40;1.30;;;1.50;67.80;;;;;;5117987;27;20031;-68
2023/03/01 05:40:19;;;;;;;1.40;1.30;;;1.50;67.80;;;;;;5113631;28;20077;-66
2023/03/01 05:42:47;;;;;;;1.23;1.13;;;1.50;67.90;;;;;;5098245;28;20095;-69
2023/03/01 05:45:13;;;;;;;1.30;1.20;;;1.50;67.90;;;;;;5117191;27;20165;-68
2023/03/01 05:47:43;;;;;;;1.23;1.13;;;1.50;67.90;;;;;;5107228;27;20027;-67
2023/03/01 05:50:10;;;;;;;1.20;1.00;;;1.50;68.00;;;;;;5113599;28;20020;-68
2023/03/01 05:52:36;;;;;;;1.95;1.75;;;1.50;68.00;;;;;;5102415;28;20481;-67
2023/03/01 05:55:01;;;;;;;1.15;1.10;;;1.50;68.00;;;;;;5122104;27;20015;-67
2023/03/01 05:57:29;;;;;;;1.73;1.52;;;1.50;68.00;;;;;;5121409;27;20023;-67
2023/03/01 05:59:54;;;;;;;1.20;1.10;;;1.50;68.10;;;;;;5096561;28;20035;-65
2023/03/01 06:02:20;;;;;;;1.88;1.50;;;1.50;68.10;;;;;;5107136;27;20031;-65
2023/03/01 06:04:45;;;;;;;1.27;1.17;;;1.50;68.10;;;;;;5121727;27;20066;-68
2023/03/01 06:07:11;;;;;;;1.50;1.40;;;1.50;68.10;;;;;;5123877;27;20043;-66
2023/03/01 06:09:36;;;;;;;4.35;1.70;;;1.50;68.10;;;;;;5112857;28;20027;-67
2023/03/01 06:12:02;;;;;;;1.65;1.40;;;1.50;68.10;;;;;;5115562;27;20048;-67
2023/03/01 06:14:27;;;;;;;1.70;1.48;;;1.40;68.10;;;;;;5100099;27;20027;-67
2023/03/01 06:16:53;;;;;;;1.60;1.42;;;1.40;68.20;;;;;;5116091;27;20043;-67
2023/03/01 06:19:18;;;;;;;2.35;1.65;;;1.40;68.20;;;;;;5132007;27;20061;-65
2023/03/01 06:21:44;;;;;;;2.38;1.88;;;1.40;68.20;;;;;;5113018;27;20106;-67
2023/03/01 06:24:10;;;;;;;2.67;1.25;;;1.30;68.20;;;;;;5128281;27;20027;-67
2023/03/01 06:26:35;;;;;;;2.75;1.60;;;1.30;68.40;;;;;;5114147;27;20386;-67
2023/03/01 06:29:01;;;;;;;1.02;1.00;;;1.30;68.40;;;;;;5129166;27;20094;-66
2023/03/01 06:31:26;;;;;;;1.25;1.15;;;1.40;68.60;;;;;;5122631;27;20636;-66
2023/03/01 06:33:52;;;;;;;1.58;1.30;;;1.40;68.50;;;;;;5127773;27;20054;-68
2023/03/01 06:36:20;;;;;;;1.52;1.40;;;1.40;68.50;;;;;;5117444;27;20034;-67
2023/03/01 06:38:46;;;;;;;2.00;1.30;;;1.50;68.60;;;;;;5125710;27;20106;-68
2023/03/01 06:41:12;;;;;;;1.63;1.10;;;1.50;68.40;;;;;;5124778;27;20102;-67
2023/03/01 06:43:37;;;;;;;1.05;1.00;;;1.50;68.40;;;;;;5122315;27;20035;-67
2023/03/01 06:46:09;;;;;;;1.45;1.30;;;1.50;68.40;;;;;;5125067;27;20035;-68
2023/03/01 06:48:35;;;;;;;1.67;1.33;;;1.60;69.00;;;;;;5105119;27;20118;-67
2023/03/01 06:51:00;;;;;;;1.92;1.05;;;1.60;68.30;;;;;;5119905;27;20090;-67
2023/03/01 06:53:27;;;;;;;1.20;1.10;;;1.60;68.40;;;;;;5112645;27;20023;-66
2023/03/01 06:55:57;;;;;;;1.30;1.10;;;1.60;68.40;;;;;;5132299;27;20046;-67
2023/03/01 06:58:23;;;;;;;2.90;1.20;;;1.70;68.40;;;;;;5120112;27;20027;-68
2023/03/01 07:00:48;;;;;;;1.25;1.10;;;1.70;69.00;;;;;;5116565;27;20023;-67
2023/03/01 07:03:14;;;;;;;1.33;1.10;;;1.70;68.30;;;;;;5100506;28;20020;-67
2023/03/01 07:05:39;;;;;;;1.13;1.02;;;1.80;68.40;;;;;;5111924;28;20109;-68
2023/03/01 07:08:05;;;;;;;1.08;1.00;;;1.80;68.20;;;;;;5103824;28;20117;-67
2023/03/01 07:10:31;;;;;;;1.00;1.00;;;1.90;68.10;;;;;;5091400;28;20020;-67
2023/03/01 07:12:58;;;;;;;1.10;1.00;;;2.00;68.10;;;;;;5096853;28;20027;-67
2023/03/01 07:15:25;;;;;;;2.25;1.25;;;2.00;67.90;;;;;;5111375;28;20043;-66
2023/03/01 07:17:50;;;;;;;1.00;1.00;;;2.10;67.90;;;;;;5113885;27;20186;-66
2023/03/01 07:20:17;;;;;;;1.20;1.10;;;2.20;67.80;;;;;;5094967;28;20490;-67
2023/03/01 07:22:43;;;;;;;1.73;1.40;;;2.20;67.70;;;;;;5104512;27;20036;-67
2023/03/01 07:25:10;;;;;;;1.48;1.35;;;2.20;67.50;;;;;;5102168;27;20359;-68
2023/03/01 07:27:36;;;;;;;1.27;1.17;;;2.30;67.50;;;;;;5105215;27;20023;-68
2023/03/01 07:30:02;;;;;;;2.67;1.20;;;2.30;67.50;;;;;;5111610;27;20511;-67
2023/03/01 07:32:28;;;;;;;1.45;1.20;;;2.40;67.40;;;;;;5096608;27;20016;-68
2023/03/01 07:34:54;;;;;;;1.33;1.15;;;2.40;67.50;;;;;;5101874;28;20043;-68
2023/03/01 07:37:19;;;;;;;1.30;1.20;;;2.40;67.40;;;;;;5107720;28;20119;-68
2023/03/01 07:39:45;;;;;;;1.48;1.30;;;2.40;67.50;;;;;;5101346;28;20024;-67
2023/03/01 07:42:10;;;;;;;1.77;1.35;;;2.40;67.40;;;;;;5110781;27;20045;-67
2023/03/01 07:44:36;;;;;;;1.80;1.50;;;2.40;67.40;;;;;;5109275;27;20073;-68
2023/03/01 07:47:03;;;;;;;1.77;1.50;;;2.50;67.40;;;;;;5108460;27;20035;-67
2023/03/01 07:49:29;;;;;;;1.60;1.40;;;2.50;67.30;;;;;;5103141;28;20047;-68
2023/03/01 07:51:54;;;;;;;2.50;1.33;;;2.50;67.30;;;;;;5106074;27;20051;-68
2023/03/01 07:54:20;;;;;;;1.40;1.30;;;2.60;67.30;;;;;;5093288;28;20017;-68
2023/03/01 07:56:46;;;;;;;1.45;1.20;;;2.70;67.30;;;;;;5091958;28;20042;-68
2023/03/01 07:59:12;;;;;;;1.63;1.40;;;2.70;67.20;;;;;;5104166;28;20019;-67
2023/03/01 08:01:37;;;;;;;1.80;1.20;;;2.80;67.10;;;;;;5105882;27;20027;-68
2023/03/01 08:04:06;;;;;;;1.30;1.20;;;2.90;67.00;;;;;;5094895;28;20047;-67
2023/03/01 08:06:34;;;;;;;1.77;1.33;;;3.00;67.00;;;;;;5105045;28;20474;-68
2023/03/01 08:09:00;;;;;;;2.38;1.50;;;3.00;66.90;;;;;;5111721;27;20043;-67
2023/03/01 08:11:27;;;;;;;1.70;1.40;;;3.10;66.90;;;;;;5103957;27;20047;-68
2023/03/01 08:13:54;;;;;;;1.52;1.33;;;3.20;66.80;;;;;;5100198;28;20020;-68
2023/03/01 08:16:20;;;;;;;1.38;1.20;;;3.20;66.70;;;;;;5118147;27;20028;-68
2023/03/01 08:18:45;;;;;;;2.33;1.27;;;3.30;66.70;;;;;;5104916;28;20055;-68
2023/03/01 08:21:14;;;;;;;1.70;1.48;;;3.30;66.50;;;;;;5103368;28;20051;-68
2023/03/01 08:23:40;;;;;;;2.15;1.40;;;3.40;66.60;;;;;;5101619;28;20062;-67
2023/03/01 08:26:10;;;;;;;1.73;1.20;;;3.50;66.60;;;;;;5106645;28;20118;-69
2023/03/01 08:28:36;;;;;;;2.13;1.45;;;3.50;66.50;;;;;;5098689;28;20538;-69
2023/03/01 08:31:02;;;;;;;2.88;1.60;;;3.60;66.50;;;;;;5113230;27;20031;-68
2023/03/01 08:33:28;;;;;;;1.80;1.45;;;3.70;66.90;;;;;;5107135;27;20023;-68
2023/03/01 08:36:03;;;;;;;1.70;1.10;;;3.80;66.20;;;;;;5106811;28;20028;-68
2023/03/01 08:38:28;;;;;;;2.10;1.40;;;3.90;66.20;;;;;;5102246;28;20085;-67
2023/03/01 08:40:54;;;;;;;2.47;1.75;;;3.90;65.40;;;;;;5109353;28;20016;-67
2023/03/01 08:43:20;;;;;;;2.28;1.50;;;3.90;65.40;;;;;;5103391;28;20377;-67
2023/03/01 08:45:47;;;;;;;2.97;1.30;;;4.00;65.60;;;;;;5090083;28;20020;-68
2023/03/01 08:48:13;;;;;;;5.45;2.35;;;4.10;66.20;;;;;;5093154;28;20024;-67
2023/03/01 08:50:39;;;;;;;5.32;2.60;;;4.10;64.90;;;;;;5097490;28;20444;-69
2023/03/01 08:53:04;;;;;;;5.43;2.50;;;4.10;63.50;;;;;;5099966;28;20032;-67
2023/03/01 08:55:30;;;;;;;4.38;2.75;;;4.10;63.70;;;;;;5108001;28;20024;-67
2023/03/01 08:57:57;;;;;;;4.32;2.60;;;4.10;63.20;;;;;;5107879;28;20067;-67
2023/03/01 09:00:23;;;;;;;4.68;2.50;;;4.10;62.70;;;;;;5104879;28;20080;-67
2023/03/01 09:02:48;;;;;;;4.35;2.40;;;4.20;63.20;;;;;;5097524;28;20089;-67
2023/03/01 09:05:14;;;;;;;2.70;2.33;;;4.30;62.70;;;;;;5096238;27;20064;-68
2023/03/01 09:07:40;;;;;;;4.63;2.30;;;4.30;62.80;;;;;;5111904;27;20027;-68
2023/03/01 09:10:06;;;;;;;4.63;2.55;;;4.30;62.20;;;;;;5097401;28;20030;-68
2023/03/01 09:12:31;;;;;;;4.88;2.60;;;4.30;61.80;;;;;;5100410;28;20070;-68
2023/03/01 09:14:57;;;;;;;2.90;1.70;;;4.40;61.80;;;;;;5103306;28;20020;-68
2023/03/01 09:17:22;;;;;;;3.70;2.10;;;4.40;62.20;;;;;;5098502;28;20085;-69
2023/03/01 09:19:48;;;;;;;4.13;1.90;;;4.60;61.60;;;;;;5099739;28;20032;-67
2023/03/01 09:22:14;;;;;;;2.78;1.95;;;4.60;61.80;;;;;;5113439;27;20031;-67
2023/03/01 09:24:40;;;;;;;6.10;2.00;;;4.60;61.70;;;;;;5104208;28;20027;-67
2023/03/01 09:27:08;;;;;;;2.42;1.80;;;4.60;60.30;;;;;;5108796;27;20043;-67
2023/03/01 09:29:35;;;;;;;3.60;2.22;;;4.70;60.80;;;;;;5108199;27;20113;-66
2023/03/01 09:32:01;;;;;;;3.28;2.15;;;4.70;59.80;;;;;;5099227;27;20027;-68
2023/03/01 09:34:26;;;;;;;3.92;2.35;;;4.60;59.40;;;;;;5104750;28;20026;-66
2023/03/01 09:36:52;;;;;;;3.38;2.00;;;4.60;59.90;;;;;;5108898;27;20130;-67
2023/03/01 09:39:18;;;;;;;4.38;2.38;;;4.70;60.00;;;;;;5105501;27;20024;-68
2023/03/01 09:41:48;;;;;;;3.90;2.25;;;4.70;59.50;;;;;;5099698;28;20711;-68
2023/03/01 09:44:18;;;;;;;3.45;2.10;;;4.70;58.70;;;;;;5096637;27;20040;-68
2023/03/01 09:46:45;;;;;;;5.70;2.75;;;4.70;59.50;;;;;;5098611;27;20036;-68
2023/03/01 09:49:17;;;;;;;4.78;2.50;;;4.70;59.00;;;;;;5103393;27;20034;-66
2023/03/01 09:51:47;;;;;;;3.97;2.20;;;4.70;58.90;;;;;;5100294;27;20048;-68
2023/03/01 09:54:13;;;;;;;3.15;1.88;;;4.90;59.80;;;;;;5098463;28;20024;-67
2023/03/01 09:56:50;;;;;;;5.82;2.92;;;5.00;59.70;;;;;;5100597;28;20027;-67
2023/03/01 09:59:28;;;;;;;5.28;3.05;;;5.00;58.00;;;;;;5103881;28;20077;-67
2023/03/01 10:02:18;;;;;;;4.32;2.65;;;5.00;59.10;;;;;;5098368;27;20032;-67
2023/03/01 10:04:48;;;;;;;5.95;2.80;;;5.00;59.10;;;;;;5100557;27;20043;-67
2023/03/01 10:07:42;;;;;;;4.00;2.70;;;5.10;58.40;;;;;;5102105;27;20058;-66
2023/03/01 10:10:14;;;;;;;4.80;2.53;;;5.10;59.00;;;;;;5102435;27;20027;-67
2023/03/01 10:12:41;;;;;;;5.47;3.17;;;5.20;58.90;;;;;;5098910;28;20055;-69
2023/03/01 10:15:30;;;;;;;5.18;2.90;;;5.20;57.70;;;;;;5102267;28;20810;-68
2023/03/01 10:18:00;;;;;;;6.53;3.20;;;5.30;58.70;;;;;;5099111;28;20092;-68
2023/03/01 10:20:42;;;;;;;7.05;3.50;;;5.30;57.90;;;;;;5101179;28;20534;-68
2023/03/01 10:23:08;;;;;;;;;;;5.30;58.20;;;;;;5106276;27;20069;-67
2023/03/01 10:26:08;;;;;;;6.10;3.22;;;5.30;57.30;;;;;;5104770;27;19922;-67
2023/03/01 10:29:02;;;;;;;6.55;2.70;;;5.30;57.90;;;;;;5103532;28;20489;-68
2023/03/01 10:31:42;;;;;;;3.95;2.13;;;5.30;57.60;;;;;;5103417;27;20067;-68
2023/03/01 10:34:12;;;;;;;3.97;2.42;;;5.40;57.90;;;;;;5103080;28;20034;-67
2023/03/01 10:36:40;;;;;;;4.63;2.22;;;5.50;58.60;;;;;;5100460;28;20103;-68
2023/03/01 10:39:14;;;;;;;5.35;2.38;;;5.60;58.20;;;;;;5099758;27;20087;-67
2023/03/01 10:41:58;;;;;;;3.90;2.40;;;5.60;57.90;;;;;;5101236;27;20040;-68
2023/03/01 10:44:41;;;;;;;5.82;2.30;;;5.70;57.70;;;;;;5108951;28;20023;-68
2023/03/01 10:47:15;;;;;;;4.32;2.38;;;5.70;58.20;;;;;;5104476;27;20127;-68
2023/03/01 10:50:11;;;;;;;4.25;2.30;;;5.70;58.20;;;;;;5093406;28;20474;-68
2023/03/01 10:52:40;;;;;;;4.93;2.72;;;5.70;56.90;;;;;;5098107;28;20134;-67
2023/03/01 10:55:37;;;;;;;5.25;2.13;;;5.70;57.20;;;;;;5102078;28;20020;-67
2023/03/01 10:58:14;;;;;;;4.50;2.60;;;5.60;56.80;;;;;;5116092;27;20057;-68
2023/03/01 11:00:47;;;;;;;3.72;2.00;;;5.70;57.00;;;;;;5105506;28;20035;-67
2023/03/01 11:03:16;;;;;;;3.47;1.83;;;5.70;57.40;;;;;;5113198;27;20023;-68
2023/03/01 11:06:02;;;;;;;3.95;1.95;;;5.90;57.80;;;;;;5101481;27;20081;-66
2023/03/01 11:08:42;;;;;;;4.68;2.50;;;6.00;57.40;;;;;;5105559;27;20038;-67
2023/03/01 11:11:20;;;;;;;4.50;2.38;;;6.00;56.50;;;;;;5102402;27;20409;-67
2023/03/01 11:13:56;;;;;;;4.05;2.42;;;5.90;55.90;;;;;;5102040;28;20023;-67
2023/03/01 11:16:32;;;;;;;4.13;1.90;;;5.80;54.90;;;;;;5106601;28;20103;-67
2023/03/01 11:19:03;;;;;;;2.58;1.73;;;5.90;56.60;;;;;;5104139;28;20196;-67
2023/03/01 11:21:32;;;;;;;2.70;1.50;;;6.10;56.90;;;;;;5103577;28;20036;-68
2023/03/01 11:24:00;;;;;;;4.85;2.05;;;6.20;56.30;;;;;;5101402;28;20069;-67
2023/03/01 11:26:28;;;;;;;4.80;2.28;;;6.10;54.50;;;;;;5100328;28;20377;-68
2023/03/01 11:28:58;;;;;;;4.15;2.30;;;6.10;54.40;;;;;;5104352;28;20484;-67
2023/03/01 11:31:25;;;;;;;4.63;2.53;;;6.10;54.80;;;;;;5104688;28;20511;-68
2023/03/01 11:33:56;;;;;;;3.85;2.10;;;6.10;53.80;;;;;;5104063;27;20024;-68
2023/03/01 11:36:31;;;;;;;4.43;2.23;;;6.10;53.90;;;;;;5105849;27;20034;-68
2023/03/01 11:39:01;;;;;;;3.63;2.25;;;6.10;53.60;;;;;;5104491;27;20281;-68
2023/03/01 11:41:32;;;;;;;3.55;2.13;;;6.20;54.50;;;;;;5102738;27;20119;-70
2023/03/01 11:44:09;;;;;;;5.40;2.70;;;6.30;54.10;;;;;;5099972;28;20149;-67
2023/03/01 11:46:47;;;;;;;3.40;1.88;;;6.20;53.30;;;;;;5104768;28;20074;-67
2023/03/01 11:49:31;;;;;;;4.03;2.47;;;6.30;54.80;;;;;;5103201;27;20024;-66
2023/03/01 11:52:21;;;;;;;3.63;2.00;;;6.30;54.20;;;;;;5105999;28;20023;-67
2023/03/01 11:55:24;;;;;;;4.82;2.28;;;6.40;54.20;;;;;;5100200;27;20023;-67
2023/03/01 11:57:59;;;;;;;5.85;2.50;;;6.50;55.10;;;;;;5100780;28;20646;-67
2023/03/01 12:01:01;;;;;;;5.45;2.63;;;6.60;53.10;;;;;;5107058;28;20024;-66
2023/03/01 12:03:29;;;;;;;3.25;2.08;;;6.60;53.70;;;;;;5104353;28;20047;-68
2023/03/01 12:06:09;;;;;;;3.95;2.20;;;6.60;53.00;;;;;;5107009;28;20038;-66
2023/03/01 12:08:41;;;;;;;5.95;2.35;;;6.50;53.80;;;;;;5105646;28;20058;-67
2023/03/01 12:11:21;;;;;;;4.63;2.58;;;6.60;52.90;;;;;;5096120;28;20020;-67
2023/03/01 12:14:08;;;;;;;4.93;2.42;;;6.70;53.80;;;;;;5096189;28;20134;-68
2023/03/01 12:17:04;;;;;;;2.50;1.77;;;6.90;54.20;;;;;;5088075;28;20168;-66
2023/03/01 12:19:32;;;;;;;4.05;2.17;;;7.10;53.90;;;;;;5099180;28;20032;-67
2023/03/01 12:22:22;;;;;;;4.68;2.55;;;7.10;53.50;;;;;;5112541;27;20513;-68
2023/03/01 12:24:57;;;;;;;4.85;2.72;;;7.20;52.90;;;;;;5105798;27;20031;-67
2023/03/01 12:28:00;;;;;;;7.93;3.70;;;7.10;52.30;;;;;;5103900;28;20062;-67
2023/03/01 12:30:46;;;;;;;4.63;3.03;;;7.00;52.50;;;;;;5104142;28;20131;-68
2023/03/01 12:33:26;;;;;;;4.22;2.60;;;6.90;51.10;;;;;;5105844;27;20036;-67
2023/03/01 12:36:11;;;;;;;5.13;2.42;;;7.00;52.50;;;;;;5102402;28;20042;-68
2023/03/01 12:38:50;;;;;;;5.22;2.80;;;7.00;52.20;;;;;;5098432;28;20035;-67
2023/03/01 12:41:38;;;;;;;4.47;2.00;;;7.00;51.10;;;;;;5108450;27;20031;-68
2023/03/01 12:44:35;;;;;;;4.35;2.42;;;7.20;52.30;;;;;;5100701;28;20054;-69
2023/03/01 12:47:28;;;;;;;3.95;2.70;;;7.30;51.20;;;;;;5096738;28;20031;-67
2023/03/01 12:50:06;;;;;;;3.00;1.92;;;7.40;52.20;;;;;;5094769;28;20462;-68
2023/03/01 12:52:40;;;;;;;5.28;2.40;;;7.70;52.20;;;;;;5097666;28;20023;-68
2023/03/01 12:55:24;;;;;;;3.75;2.08;;;7.70;51.60;;;;;;5098707;28;20020;-68
2023/03/01 12:58:02;;;;;;;4.85;2.65;;;7.90;52.30;;;;;;5101496;28;20028;-68
2023/03/01 13:00:37;;;;;;;3.47;2.25;;;7.80;51.30;;;;;;5097379;28;20016;-68
2023/03/01 13:03:48;;;;;;;4.72;2.53;;;7.90;51.70;;;;;;5099905;28;20124;-66
2023/03/01 13:06:40;;;;;;;3.22;2.22;;;8.00;50.60;;;;;;5105210;28;20054;-67
2023/03/01 13:09:12;;;;;;;;;;;8.10;51.40;;;;;;5110019;28;20027;-68
2023/03/01 13:11:42;;;;;;;4.35;2.20;;;8.30;51.60;;;;;;5103401;28;19968;-68
2023/03/01 13:14:21;;;;;;;3.78;2.28;;;8.40;50.40;;;;;;5099102;28;20248;-67
2023/03/01 13:16:48;;;;;;;3.65;2.05;;;8.30;50.00;;;;;;5101200;28;20024;-67
2023/03/01 13:19:26;;;;;;;3.75;1.88;;;8.40;51.40;;;;;;5097384;28;20603;-68
2023/03/01 13:21:54;;;;;;;4.43;2.30;;;8.60;50.10;;;;;;5096824;28;20449;-67